Time;durP1;ratioP1;P1;durP2;ratioP2;P2;SDS_P1;SDS_P2;PMS_P1;PMS_P2;Temp;Humidity;BMP_temperature;BMP_pressure;BME280_temperature;BME280_humidity;BME280_pressure;Samples;Min_cycle;Max_cycle;Signal;HPM_P1;HPM_P2
2023/08/29 00:00:23;;;;;;;4.90;4.43;;;16.90;99.90;;;;;;5029388;28;20258;-72
2023/08/29 00:02:48;;;;;;;6.87;5.00;;;16.90;99.90;;;;;;5028244;28;20311;-73
2023/08/29 00:05:14;;;;;;;4.87;4.47;;;16.80;99.90;;;;;;5030511;28;20226;-73
2023/08/29 00:07:41;;;;;;;4.73;4.03;;;16.70;99.90;;;;;;5060565;28;20251;-73
2023/08/29 00:10:07;;;;;;;6.20;5.23;;;16.80;99.90;;;;;;5047026;28;20224;-73
2023/08/29 00:12:33;;;;;;;6.90;4.50;;;16.70;99.90;;;;;;5029898;28;20492;-73
2023/08/29 00:15:05;;;;;;;4.70;4.20;;;16.70;99.90;;;;;;5060209;28;20473;-71
2023/08/29 00:17:31;;;;;;;5.07;4.57;;;16.70;99.90;;;;;;5029971;28;20906;-73
2023/08/29 00:19:57;;;;;;;5.70;5.20;;;16.70;99.90;;;;;;5029199;28;20465;-73
2023/08/29 00:22:23;;;;;;;6.97;4.90;;;16.70;99.90;;;;;;5029796;28;20489;-73
2023/08/29 00:24:52;;;;;;;5.40;4.90;;;16.60;99.90;;;;;;5028890;28;20239;-72
2023/08/29 00:27:18;;;;;;;4.57;4.23;;;16.70;99.90;;;;;;5061056;28;20242;-73
2023/08/29 00:29:43;;;;;;;6.63;4.33;;;16.60;99.90;;;;;;5028040;28;21070;-73
2023/08/29 00:32:10;;;;;;;5.90;5.33;;;16.50;99.90;;;;;;5045099;28;20469;-72
2023/08/29 00:34:36;;;;;;;7.87;4.80;;;16.60;99.90;;;;;;5046006;28;20247;-71
2023/08/29 00:37:02;;;;;;;6.00;5.30;;;16.50;99.90;;;;;;5032059;28;20919;-71
2023/08/29 00:39:27;;;;;;;7.63;5.00;;;16.50;99.90;;;;;;5060987;28;20281;-73
2023/08/29 00:41:54;;;;;;;5.20;4.80;;;16.60;99.90;;;;;;5030438;28;20300;-73
2023/08/29 00:44:20;;;;;;;6.00;5.50;;;16.50;99.90;;;;;;5029270;28;20946;-73
2023/08/29 00:46:46;;;;;;;6.10;5.50;;;16.50;99.90;;;;;;5029792;28;20227;-72
2023/08/29 00:49:16;;;;;;;5.90;5.40;;;16.50;99.90;;;;;;5030296;28;21244;-72
2023/08/29 00:51:42;;;;;;;6.60;5.90;;;16.60;99.90;;;;;;5013798;28;20824;-71
2023/08/29 00:54:08;;;;;;;6.07;5.47;;;16.50;99.90;;;;;;5062402;28;20462;-72
2023/08/29 00:56:38;;;;;;;5.83;5.40;;;16.50;99.90;;;;;;5029832;28;20513;-73
2023/08/29 00:59:04;;;;;;;6.87;6.03;;;16.50;99.90;;;;;;5030812;28;20486;-73
2023/08/29 01:01:32;;;;;;;6.27;4.30;;;16.50;99.90;;;;;;5027594;28;20462;-71
2023/08/29 01:03:58;;;;;;;6.30;5.40;;;16.50;99.90;;;;;;5044086;28;20231;-72
2023/08/29 01:06:24;;;;;;;5.40;4.37;;;16.50;99.90;;;;;;5032726;28;20454;-73
2023/08/29 01:08:50;;;;;;;6.00;5.50;;;16.50;99.90;;;;;;5013740;28;20223;-73
2023/08/29 01:11:33;;;;;;;5.63;5.13;;;16.50;99.90;;;;;;5046974;28;20544;-72
2023/08/29 01:14:19;;;;;;;8.80;5.83;;;16.40;99.90;;;;;;5062046;28;20492;-73
2023/08/29 01:16:56;;;;;;;6.63;5.87;;;16.50;99.90;;;;;;5028594;28;21022;-72
2023/08/29 01:19:23;;;;;;;5.63;5.10;;;16.40;99.90;;;;;;5061098;28;20473;-74
2023/08/29 01:22:18;;;;;;;8.17;5.90;;;16.40;99.90;;;;;;5031972;28;20470;-73
2023/08/29 01:24:53;;;;;;;6.60;6.00;;;16.40;99.90;;;;;;5018445;28;20572;-72
2023/08/29 01:27:20;;;;;;;8.73;6.10;;;16.40;99.90;;;;;;5029985;28;20468;-72
2023/08/29 01:29:46;;;;;;;5.13;4.63;;;16.40;99.90;;;;;;5029383;28;20462;-72
2023/08/29 01:32:13;;;;;;;6.17;5.67;;;16.40;99.90;;;;;;5031138;28;20228;-73
2023/08/29 01:34:43;;;;;;;6.37;5.77;;;16.40;99.90;;;;;;5012374;28;20346;-71
2023/08/29 01:37:09;;;;;;;6.87;6.27;;;16.40;99.90;;;;;;5043143;28;20482;-73
2023/08/29 01:39:37;;;;;;;7.10;6.20;;;16.40;99.90;;;;;;5028206;28;20474;-73
2023/08/29 01:42:02;;;;;;;8.37;5.47;;;16.30;99.90;;;;;;5030234;28;20466;-73
2023/08/29 01:44:28;;;;;;;8.80;6.27;;;16.40;99.90;;;;;;5042717;28;20497;-72
2023/08/29 01:46:54;;;;;;;6.40;5.57;;;16.40;99.90;;;;;;5028708;28;20309;-73
2023/08/29 01:49:19;;;;;;;6.20;5.60;;;16.30;99.90;;;;;;5043673;28;20319;-73
2023/08/29 01:51:45;;;;;;;7.33;6.63;;;16.30;99.90;;;;;;5043790;28;20228;-73
2023/08/29 01:54:12;;;;;;;9.10;5.60;;;16.30;99.90;;;;;;5030794;28;20224;-72
2023/08/29 01:56:39;;;;;;;6.80;6.10;;;16.30;99.90;;;;;;5042407;28;20466;-73
2023/08/29 01:59:06;;;;;;;6.70;6.10;;;16.20;99.90;;;;;;5041980;28;20223;-72
2023/08/29 02:01:33;;;;;;;6.97;6.27;;;16.30;99.90;;;;;;5059253;28;20881;-72
2023/08/29 02:03:58;;;;;;;8.37;6.80;;;16.30;99.90;;;;;;5023675;28;20732;-73
2023/08/29 02:06:24;;;;;;;7.20;6.50;;;16.30;99.90;;;;;;5031455;28;20451;-72
2023/08/29 02:08:50;;;;;;;8.57;7.13;;;16.20;99.90;;;;;;5060213;28;20224;-73
2023/08/29 02:11:16;;;;;;;7.80;6.90;;;16.20;99.90;;;;;;5061411;28;20641;-74
2023/08/29 02:13:41;;;;;;;7.93;7.13;;;16.20;99.90;;;;;;5027094;28;20231;-72
2023/08/29 02:16:07;;;;;;;6.80;6.13;;;16.20;99.90;;;;;;5029833;28;20320;-72
2023/08/29 02:18:33;;;;;;;8.10;7.30;;;16.20;99.90;;;;;;5030608;28;20240;-71
2023/08/29 02:20:59;;;;;;;8.20;7.40;;;16.20;99.90;;;;;;5012215;28;20224;-72
2023/08/29 02:23:26;;;;;;;7.60;6.90;;;16.20;99.90;;;;;;5029184;28;20535;-73
2023/08/29 02:26:03;;;;;;;8.33;7.37;;;16.10;99.90;;;;;;5027816;28;20589;-72
2023/08/29 02:28:35;;;;;;;7.73;6.93;;;16.20;99.90;;;;;;5014122;28;20639;-70
2023/08/29 02:31:08;;;;;;;8.90;6.77;;;16.10;99.90;;;;;;5029714;28;20468;-72
2023/08/29 02:33:37;;;;;;;9.07;7.33;;;16.10;99.90;;;;;;5030316;28;20466;-72
2023/08/29 02:36:04;;;;;;;8.30;7.50;;;16.10;99.90;;;;;;5030697;28;20464;-72
2023/08/29 02:38:30;;;;;;;8.57;7.80;;;16.00;99.90;;;;;;5029131;28;20509;-72
2023/08/29 02:40:56;;;;;;;11.40;7.97;;;16.00;99.90;;;;;;5030455;28;20521;-72
2023/08/29 02:43:22;;;;;;;10.60;8.17;;;16.00;99.90;;;;;;5045639;28;20466;-72
2023/08/29 02:45:50;;;;;;;8.83;7.60;;;16.00;99.90;;;;;;5063456;28;20216;-72
2023/08/29 02:48:15;;;;;;;8.77;7.70;;;16.00;99.90;;;;;;5035759;28;20223;-73
2023/08/29 02:50:42;;;;;;;8.57;7.67;;;16.00;99.90;;;;;;5030416;28;20458;-72
2023/08/29 02:53:08;;;;;;;11.30;7.60;;;16.00;99.90;;;;;;5034689;28;20254;-72
2023/08/29 02:55:34;;;;;;;8.70;7.03;;;16.00;99.90;;;;;;5032942;28;20458;-72
2023/08/29 02:57:59;;;;;;;8.70;7.60;;;15.90;99.90;;;;;;5063936;28;20232;-73
2023/08/29 03:00:25;;;;;;;7.60;6.87;;;16.00;99.90;;;;;;5032032;28;21128;-72
2023/08/29 03:02:51;;;;;;;9.53;8.07;;;16.00;99.90;;;;;;5028732;28;20304;-73
2023/08/29 03:05:16;;;;;;;10.90;7.37;;;16.00;99.90;;;;;;5033382;28;20311;-73
2023/08/29 03:07:42;;;;;;;9.70;8.40;;;16.00;99.90;;;;;;5016392;28;20372;-72
2023/08/29 03:10:08;;;;;;;9.53;8.47;;;15.90;99.90;;;;;;5033778;28;20222;-71
2023/08/29 03:12:34;;;;;;;15.33;9.17;;;15.90;99.90;;;;;;5059347;28;20788;-71
2023/08/29 03:15:00;;;;;;;15.10;8.27;;;16.00;99.90;;;;;;5032192;28;20466;-72
2023/08/29 03:17:26;;;;;;;8.80;7.90;;;16.00;99.90;;;;;;5057932;27;20513;-72
2023/08/29 03:19:51;;;;;;;8.60;7.63;;;16.00;99.90;;;;;;5031719;28;20224;-73
2023/08/29 03:22:17;;;;;;;11.27;7.37;;;16.00;99.90;;;;;;5034144;28;20255;-71
2023/08/29 03:24:46;;;;;;;15.33;7.80;;;16.00;99.90;;;;;;5063338;28;20299;-72
2023/08/29 03:27:13;;;;;;;9.57;8.03;;;16.00;99.90;;;;;;5034055;28;20321;-72
2023/08/29 03:29:39;;;;;;;11.83;7.77;;;16.00;99.90;;;;;;5030584;28;20462;-74
2023/08/29 03:32:05;;;;;;;8.90;7.70;;;16.00;99.90;;;;;;5033245;28;20551;-71
2023/08/29 03:34:31;;;;;;;8.00;7.10;;;16.00;99.90;;;;;;5016964;28;20496;-72
2023/08/29 03:36:57;;;;;;;9.30;8.40;;;15.90;99.90;;;;;;5032593;28;20798;-73
2023/08/29 03:39:22;;;;;;;8.93;7.87;;;16.00;99.90;;;;;;5047147;28;20793;-71
2023/08/29 03:41:48;;;;;;;9.20;7.97;;;15.90;99.90;;;;;;5050218;28;20223;-73
2023/08/29 03:44:14;;;;;;;10.43;8.37;;;15.90;99.90;;;;;;5033752;28;20320;-71
2023/08/29 03:46:39;;;;;;;11.13;7.80;;;15.90;99.90;;;;;;5062061;28;20730;-73
2023/08/29 03:49:05;;;;;;;8.00;6.87;;;16.00;99.90;;;;;;5033387;28;20607;-73
2023/08/29 03:51:32;;;;;;;11.50;8.03;;;16.00;99.90;;;;;;5032707;28;20244;-72
2023/08/29 03:53:57;;;;;;;10.23;7.87;;;15.90;99.90;;;;;;5026437;28;20998;-73
2023/08/29 03:56:23;;;;;;;9.77;8.77;;;15.80;99.90;;;;;;5042367;28;20212;-73
2023/08/29 03:58:49;;;;;;;8.67;7.70;;;15.90;99.90;;;;;;5029376;28;20223;-72
2023/08/29 04:01:19;;;;;;;10.03;8.37;;;15.90;99.90;;;;;;5042877;28;20346;-73
2023/08/29 04:03:45;;;;;;;9.93;8.63;;;15.90;99.90;;;;;;5027972;28;20219;-73
2023/08/29 04:06:11;;;;;;;9.17;8.10;;;15.90;99.90;;;;;;5030274;28;20462;-73
2023/08/29 04:08:37;;;;;;;10.47;8.70;;;15.90;99.90;;;;;;5047840;28;20509;-73
2023/08/29 04:11:03;;;;;;;9.77;8.10;;;15.80;99.90;;;;;;5029603;28;20458;-73
2023/08/29 04:13:29;;;;;;;11.30;9.07;;;15.90;99.90;;;;;;5060824;28;20224;-73
2023/08/29 04:16:00;;;;;;;8.80;7.60;;;15.90;99.90;;;;;;5031814;28;20466;-73
2023/08/29 04:18:25;;;;;;;10.80;8.33;;;15.90;99.90;;;;;;5060049;27;20231;-72
2023/08/29 04:20:51;;;;;;;9.00;8.10;;;16.00;99.90;;;;;;5025181;28;20461;-72
2023/08/29 04:23:17;;;;;;;12.27;8.70;;;16.00;99.90;;;;;;5056495;28;20220;-73
2023/08/29 04:25:42;;;;;;;9.43;8.27;;;16.00;99.90;;;;;;5029781;28;20226;-72
2023/08/29 04:28:08;;;;;;;10.30;8.73;;;16.00;99.90;;;;;;5043549;28;20696;-73
2023/08/29 04:30:35;;;;;;;9.33;7.93;;;15.90;99.90;;;;;;5030781;28;20776;-73
2023/08/29 04:33:01;;;;;;;9.80;7.60;;;15.90;99.90;;;;;;5061595;27;20220;-72
2023/08/29 04:35:26;;;;;;;9.90;8.90;;;15.90;99.90;;;;;;5030637;28;20466;-73
2023/08/29 04:37:52;;;;;;;13.93;8.37;;;15.90;99.90;;;;;;5031577;28;20227;-72
2023/08/29 04:40:21;;;;;;;10.77;9.00;;;15.90;99.90;;;;;;5043369;28;20842;-72
2023/08/29 04:42:47;;;;;;;12.23;9.10;;;15.80;99.90;;;;;;5062379;28;20526;-71
2023/08/29 04:45:13;;;;;;;10.97;8.30;;;15.80;99.90;;;;;;5045221;28;20625;-72
2023/08/29 04:47:39;;;;;;;10.53;7.97;;;15.70;99.90;;;;;;5033155;28;20445;-72
2023/08/29 04:50:06;;;;;;;11.03;8.63;;;15.70;99.90;;;;;;5060482;28;20234;-72
2023/08/29 04:52:32;;;;;;;10.77;9.63;;;15.70;99.90;;;;;;5044409;28;20573;-72
2023/08/29 04:54:58;;;;;;;14.07;9.00;;;15.60;99.90;;;;;;5030182;28;21012;-73
2023/08/29 04:57:25;;;;;;;9.27;8.00;;;15.70;99.90;;;;;;5030479;28;20520;-72
2023/08/29 04:59:53;;;;;;;11.03;9.40;;;15.60;99.90;;;;;;5058750;28;20478;-73
2023/08/29 05:02:18;;;;;;;11.83;8.93;;;15.60;99.90;;;;;;5028103;28;20474;-73
2023/08/29 05:04:46;;;;;;;9.47;7.73;;;15.70;99.90;;;;;;5056305;28;20227;-73
2023/08/29 05:07:12;;;;;;;10.90;8.90;;;15.70;99.90;;;;;;5027958;28;20238;-73
2023/08/29 05:09:37;;;;;;;10.63;9.43;;;15.60;99.90;;;;;;5028420;28;20598;-73
2023/08/29 05:12:04;;;;;;;11.70;8.97;;;15.60;99.90;;;;;;5028875;28;20222;-73
2023/08/29 05:14:29;;;;;;;10.33;9.13;;;15.60;99.90;;;;;;5042887;28;20485;-73
2023/08/29 05:16:55;;;;;;;11.67;9.30;;;15.60;99.90;;;;;;5027541;28;20989;-73
2023/08/29 05:19:22;;;;;;;11.50;9.80;;;15.60;99.90;;;;;;5057687;28;20227;-74
2023/08/29 05:21:48;;;;;;;13.40;9.80;;;15.60;99.90;;;;;;5010532;28;20470;-72
2023/08/29 05:24:14;;;;;;;11.47;9.60;;;15.60;99.90;;;;;;5040760;28;20528;-71
2023/08/29 05:26:39;;;;;;;11.30;9.30;;;15.60;99.90;;;;;;5026438;28;21163;-73
2023/08/29 05:29:05;;;;;;;9.90;8.70;;;15.60;99.90;;;;;;5023176;28;20318;-76
2023/08/29 05:31:30;;;;;;;10.53;8.60;;;15.60;99.90;;;;;;5039665;28;20834;-74
2023/08/29 05:33:56;;;;;;;13.70;9.00;;;15.50;99.90;;;;;;5028135;28;20224;-73
2023/08/29 05:36:22;;;;;;;12.30;8.63;;;15.50;99.90;;;;;;5030010;28;20292;-72
2023/08/29 05:38:48;;;;;;;10.50;8.80;;;15.50;99.90;;;;;;5013904;28;20288;-73
2023/08/29 05:41:14;;;;;;;13.53;9.97;;;15.60;99.90;;;;;;5009408;28;20292;-73
2023/08/29 05:43:40;;;;;;;11.10;8.77;;;15.60;99.90;;;;;;5000379;28;20223;-73
2023/08/29 05:46:06;;;;;;;12.10;10.23;;;15.60;99.90;;;;;;5026371;27;21235;-73
2023/08/29 05:48:32;;;;;;;11.43;9.23;;;15.60;99.90;;;;;;5000343;28;20474;-73
2023/08/29 05:50:57;;;;;;;10.83;8.93;;;15.60;99.90;;;;;;4999976;28;20369;-72
2023/08/29 05:53:23;;;;;;;14.70;10.07;;;15.60;99.90;;;;;;4994125;28;20212;-71
2023/08/29 05:55:49;;;;;;;14.27;10.70;;;15.60;99.90;;;;;;4998352;28;20753;-72
2023/08/29 05:58:16;;;;;;;14.60;11.70;;;15.50;99.90;;;;;;5000136;28;20311;-72
2023/08/29 06:00:41;;;;;;;15.00;11.30;;;15.50;99.90;;;;;;4994589;28;20284;-72
2023/08/29 06:03:09;;;;;;;12.97;10.00;;;15.60;99.90;;;;;;5000149;28;20589;-72
2023/08/29 06:05:41;;;;;;;15.00;10.37;;;15.60;99.90;;;;;;5024811;28;20226;-72
2023/08/29 06:08:07;;;;;;;14.10;10.40;;;15.60;99.90;;;;;;4999524;28;20463;-72
2023/08/29 06:10:33;;;;;;;15.20;11.00;;;15.60;99.90;;;;;;4997794;28;21004;-73
2023/08/29 06:12:59;;;;;;;13.60;10.60;;;15.60;99.90;;;;;;4999432;28;20462;-72
2023/08/29 06:15:24;;;;;;;13.90;11.63;;;15.60;99.90;;;;;;5008541;28;20916;-73
2023/08/29 06:17:50;;;;;;;13.73;11.57;;;15.60;99.90;;;;;;4999917;28;20223;-73
2023/08/29 06:20:16;;;;;;;14.73;11.43;;;15.60;99.90;;;;;;4998338;28;20342;-73
2023/08/29 06:22:42;;;;;;;15.07;11.43;;;15.60;99.90;;;;;;4999954;28;20349;-73
2023/08/29 06:25:09;;;;;;;13.40;10.57;;;15.60;99.90;;;;;;4999328;28;20474;-73
2023/08/29 06:27:36;;;;;;;15.67;10.70;;;15.60;99.90;;;;;;5000831;28;20228;-72
2023/08/29 06:30:02;;;;;;;15.67;11.53;;;15.60;99.90;;;;;;4980494;28;20474;-72
2023/08/29 06:32:29;;;;;;;14.10;11.50;;;15.60;99.90;;;;;;4999877;28;20474;-73
2023/08/29 06:34:55;;;;;;;13.90;11.07;;;15.70;99.90;;;;;;5000950;28;20496;-73
2023/08/29 06:37:21;;;;;;;14.63;11.23;;;15.70;99.90;;;;;;5013530;28;20490;-71
2023/08/29 06:39:47;;;;;;;16.47;12.17;;;15.70;99.90;;;;;;4997822;28;20478;-72
2023/08/29 06:42:13;;;;;;;14.20;11.60;;;15.70;99.90;;;;;;4999240;28;20620;-72
2023/08/29 06:44:38;;;;;;;17.13;12.50;;;15.70;99.90;;;;;;4999293;28;20231;-72
2023/08/29 06:47:04;;;;;;;15.10;10.87;;;15.70;99.90;;;;;;4995940;28;20260;-72
2023/08/29 06:49:31;;;;;;;18.90;12.20;;;15.70;99.90;;;;;;5000262;28;20370;-72
2023/08/29 06:51:56;;;;;;;16.07;11.60;;;15.70;99.90;;;;;;4998379;28;20492;-73
2023/08/29 06:54:22;;;;;;;18.67;13.87;;;15.70;99.90;;;;;;4997695;28;20566;-72
2023/08/29 06:56:49;;;;;;;17.47;12.57;;;15.70;99.90;;;;;;4993031;28;20227;-73
2023/08/29 06:59:15;;;;;;;15.67;11.73;;;15.70;99.90;;;;;;4995472;28;20231;-73
2023/08/29 07:01:41;;;;;;;20.27;13.03;;;15.80;99.90;;;;;;4998008;28;20489;-72
2023/08/29 07:04:09;;;;;;;16.63;11.67;;;15.80;99.90;;;;;;5008601;28;20549;-72
2023/08/29 07:06:34;;;;;;;14.50;11.43;;;15.80;99.90;;;;;;4999909;28;20470;-71
2023/08/29 07:09:00;;;;;;;16.23;11.37;;;15.80;99.90;;;;;;4999338;28;20517;-72
2023/08/29 07:11:26;;;;;;;17.80;12.93;;;15.80;99.90;;;;;;4996620;28;20353;-72
2023/08/29 07:13:52;;;;;;;16.87;12.40;;;15.90;99.90;;;;;;4996586;28;20473;-71
2023/08/29 07:16:18;;;;;;;15.67;12.97;;;15.90;99.90;;;;;;5000204;28;20561;-71
2023/08/29 07:18:44;;;;;;;20.37;13.30;;;15.90;99.90;;;;;;4981393;28;20216;-71
2023/08/29 07:21:10;;;;;;;16.27;12.27;;;15.90;99.90;;;;;;4990717;28;20224;-72
2023/08/29 07:23:36;;;;;;;14.80;11.60;;;15.90;99.90;;;;;;5000992;28;20466;-72
2023/08/29 07:26:02;;;;;;;21.27;12.00;;;15.90;99.90;;;;;;4994108;28;20532;-72
2023/08/29 07:28:27;;;;;;;15.67;11.20;;;15.90;99.90;;;;;;4999328;28;20867;-72
2023/08/29 07:30:53;;;;;;;15.13;11.40;;;15.90;99.90;;;;;;5002514;28;20220;-72
2023/08/29 07:33:19;;;;;;;16.70;12.10;;;16.00;99.90;;;;;;5013440;28;20301;-72
2023/08/29 07:35:47;;;;;;;16.37;11.90;;;16.00;99.90;;;;;;4998412;28;20305;-72
2023/08/29 07:38:13;;;;;;;17.20;11.80;;;16.00;99.90;;;;;;5000896;28;20602;-72
2023/08/29 07:40:39;;;;;;;14.67;11.77;;;16.00;99.90;;;;;;4982374;28;20478;-73
2023/08/29 07:43:07;;;;;;;24.83;12.60;;;16.10;99.90;;;;;;5017763;28;20576;-73
2023/08/29 07:45:33;;;;;;;15.60;11.63;;;16.10;99.90;;;;;;5011527;28;20500;-72
2023/08/29 07:47:59;;;;;;;14.83;10.83;;;16.10;99.90;;;;;;5001673;28;20500;-71
2023/08/29 07:50:25;;;;;;;14.43;10.77;;;16.20;99.90;;;;;;5001988;28;21181;-72
2023/08/29 07:52:51;;;;;;;16.10;12.20;;;16.20;99.90;;;;;;5000040;28;20394;-73
2023/08/29 07:55:17;;;;;;;13.80;10.30;;;16.20;99.90;;;;;;5000455;28;20470;-72
2023/08/29 07:57:43;;;;;;;13.90;10.63;;;16.20;99.90;;;;;;5001380;28;20858;-71
2023/08/29 08:00:10;;;;;;;15.67;11.83;;;16.20;99.90;;;;;;5000607;28;20220;-73
2023/08/29 08:02:38;;;;;;;14.13;11.17;;;16.20;99.90;;;;;;4995662;28;20327;-71
2023/08/29 08:05:06;;;;;;;14.10;10.30;;;16.30;99.90;;;;;;5003137;28;20470;-73
2023/08/29 08:07:31;;;;;;;17.30;11.40;;;16.30;99.90;;;;;;5000919;28;20481;-75
2023/08/29 08:09:57;;;;;;;13.03;10.40;;;16.40;99.90;;;;;;5008743;28;20626;-73
2023/08/29 08:12:23;;;;;;;14.70;10.67;;;16.40;99.90;;;;;;5002972;28;20219;-75
2023/08/29 08:14:50;;;;;;;14.63;11.33;;;16.40;99.90;;;;;;5001650;28;20233;-75
2023/08/29 08:17:16;;;;;;;14.00;11.00;;;16.40;99.90;;;;;;5016167;28;20220;-74
2023/08/29 08:19:41;;;;;;;12.73;10.70;;;16.50;99.90;;;;;;5000641;28;20470;-74
2023/08/29 08:22:08;;;;;;;14.83;9.80;;;16.60;99.90;;;;;;5000951;28;20231;-75
2023/08/29 08:24:34;;;;;;;14.17;11.10;;;16.60;99.90;;;;;;5028546;28;20220;-73
2023/08/29 08:26:59;;;;;;;15.03;11.10;;;16.60;99.90;;;;;;5027635;28;20508;-75
2023/08/29 08:29:25;;;;;;;13.63;10.60;;;16.60;99.90;;;;;;5000278;28;20823;-74
2023/08/29 08:31:51;;;;;;;13.60;9.63;;;16.60;99.90;;;;;;5001232;28;21081;-72
2023/08/29 08:34:16;;;;;;;13.27;10.50;;;16.70;99.90;;;;;;5002078;28;20226;-72
2023/08/29 08:36:42;;;;;;;14.13;10.87;;;16.70;99.90;;;;;;4999349;28;20231;-72
2023/08/29 08:39:08;;;;;;;14.00;10.97;;;16.80;99.90;;;;;;5002943;28;20354;-72
2023/08/29 08:41:34;;;;;;;16.33;10.70;;;16.80;99.90;;;;;;5000578;28;20228;-72
2023/08/29 08:44:04;;;;;;;14.30;11.43;;;16.80;99.90;;;;;;4998855;28;20220;-71
2023/08/29 08:46:30;;;;;;;12.87;10.43;;;16.80;99.90;;;;;;4984452;28;20239;-72
2023/08/29 08:48:56;;;;;;;13.47;9.93;;;16.80;99.90;;;;;;4999819;28;20621;-72
2023/08/29 08:51:24;;;;;;;12.80;9.40;;;16.90;99.90;;;;;;4999564;28;20473;-73
2023/08/29 08:53:52;;;;;;;13.83;11.50;;;16.90;99.90;;;;;;5002030;28;20690;-71
2023/08/29 08:56:17;;;;;;;16.07;11.87;;;16.90;99.90;;;;;;5002156;28;20512;-73
2023/08/29 08:58:43;;;;;;;13.13;10.43;;;17.00;99.90;;;;;;4998928;28;20524;-72
2023/08/29 09:01:09;;;;;;;11.73;9.87;;;17.00;99.90;;;;;;4998843;28;20228;-71
2023/08/29 09:03:35;;;;;;;12.73;10.37;;;17.10;99.90;;;;;;5001554;28;20215;-72
2023/08/29 09:06:01;;;;;;;12.00;9.80;;;17.00;99.90;;;;;;5011917;28;20219;-72
2023/08/29 09:08:31;;;;;;;12.93;10.10;;;17.10;99.90;;;;;;4998174;28;20589;-73
2023/08/29 09:11:00;;;;;;;12.03;9.10;;;17.10;99.90;;;;;;5001167;28;20234;-72
2023/08/29 09:13:26;;;;;;;13.40;10.43;;;17.20;99.90;;;;;;5001310;28;20573;-70
2023/08/29 09:15:52;;;;;;;15.60;10.50;;;17.20;99.90;;;;;;5015386;28;20996;-71
2023/08/29 09:18:31;;;;;;;12.87;10.10;;;17.20;99.90;;;;;;4999974;28;20226;-71
2023/08/29 09:21:01;;;;;;;10.80;9.40;;;17.30;99.90;;;;;;5000448;28;20233;-72
2023/08/29 09:23:28;;;;;;;12.47;10.10;;;17.30;99.90;;;;;;4999346;28;21173;-71
2023/08/29 09:25:58;;;;;;;10.23;9.17;;;17.30;99.90;;;;;;4999120;28;20461;-72
2023/08/29 09:28:29;;;;;;;11.60;9.23;;;17.40;99.90;;;;;;5000966;28;20477;-71
2023/08/29 09:30:55;;;;;;;11.10;8.90;;;17.50;99.90;;;;;;4998587;28;20504;-69
2023/08/29 09:33:22;;;;;;;13.43;9.23;;;17.50;99.90;;;;;;4999084;28;20624;-72
2023/08/29 09:35:49;;;;;;;10.17;8.50;;;17.60;99.90;;;;;;4999440;28;20470;-72
2023/08/29 09:38:17;;;;;;;8.30;7.50;;;17.70;99.90;;;;;;5011495;28;20845;-72
2023/08/29 09:40:49;;;;;;;11.37;8.20;;;17.80;99.90;;;;;;5026780;28;20469;-72
2023/08/29 09:43:16;;;;;;;10.00;8.40;;;17.80;99.90;;;;;;4998685;28;20506;-73
2023/08/29 09:45:52;;;;;;;8.43;7.53;;;17.90;99.90;;;;;;5012397;28;20547;-73
2023/08/29 09:48:18;;;;;;;7.70;6.90;;;17.90;99.90;;;;;;5027280;28;21250;-71
2023/08/29 09:50:45;;;;;;;9.30;7.17;;;17.90;99.90;;;;;;5007697;28;20466;-72
2023/08/29 09:53:19;;;;;;;9.00;7.20;;;18.00;99.90;;;;;;4998881;28;20220;-73
2023/08/29 09:56:09;;;;;;;7.70;6.50;;;18.10;99.90;;;;;;4984304;28;20506;-72
2023/08/29 09:58:38;;;;;;;5.70;5.10;;;18.20;99.90;;;;;;5009999;28;20474;-72
2023/08/29 10:01:05;;;;;;;7.10;6.40;;;18.40;99.90;;;;;;4999344;28;20470;-73
2023/08/29 10:03:31;;;;;;;6.17;5.57;;;18.50;99.90;;;;;;5000807;28;21262;-72
2023/08/29 10:06:02;;;;;;;6.67;6.07;;;18.50;99.90;;;;;;4998156;28;20474;-73
2023/08/29 10:08:43;;;;;;;5.77;5.20;;;18.60;99.90;;;;;;4999011;28;20228;-70
2023/08/29 10:11:09;;;;;;;7.93;5.83;;;18.60;99.90;;;;;;4999619;28;20922;-73
2023/08/29 10:13:36;;;;;;;6.93;5.97;;;18.70;99.90;;;;;;5000292;28;20520;-72
2023/08/29 10:16:03;;;;;;;6.13;5.53;;;18.60;99.90;;;;;;4980219;28;20466;-72
2023/08/29 10:18:30;;;;;;;6.17;5.40;;;18.70;99.90;;;;;;5000232;28;20532;-72
2023/08/29 10:20:59;;;;;;;7.50;5.27;;;18.80;99.90;;;;;;4999031;28;20531;-73
2023/08/29 10:23:26;;;;;;;5.47;4.97;;;18.60;99.90;;;;;;5026675;28;20476;-73
2023/08/29 10:25:52;;;;;;;6.30;5.30;;;18.70;99.90;;;;;;4996558;28;21262;-73
2023/08/29 10:28:19;;;;;;;6.20;5.57;;;18.80;99.90;;;;;;5013165;28;20466;-72
2023/08/29 10:30:48;;;;;;;5.10;4.60;;;18.90;99.90;;;;;;5028792;28;20246;-72
2023/08/29 10:33:14;;;;;;;6.63;5.00;;;19.00;99.90;;;;;;5057293;28;20469;-72
2023/08/29 10:35:40;;;;;;;6.20;4.87;;;18.90;99.90;;;;;;5027672;28;20497;-72
2023/08/29 10:38:14;;;;;;;8.20;5.43;;;18.90;99.90;;;;;;5058856;28;20216;-72
2023/08/29 10:40:39;;;;;;;5.13;4.63;;;18.90;99.90;;;;;;5027788;28;20215;-73
2023/08/29 10:43:17;;;;;;;5.20;4.70;;;19.00;99.90;;;;;;5027188;28;20485;-72
2023/08/29 10:45:48;;;;;;;4.80;4.40;;;19.20;99.90;;;;;;5027047;28;20823;-72
2023/08/29 10:48:24;;;;;;;5.20;4.70;;;19.40;99.90;;;;;;5027628;28;20481;-72
2023/08/29 10:51:09;;;;;;;6.20;5.60;;;19.40;99.90;;;;;;5044476;28;20469;-73
2023/08/29 10:54:05;;;;;;;5.20;4.80;;;19.40;99.90;;;;;;5029129;28;20466;-73
2023/08/29 10:56:42;;;;;;;5.93;5.27;;;19.30;99.90;;;;;;5044817;28;20483;-73
2023/08/29 10:59:32;;;;;;;5.13;4.63;;;19.60;99.90;;;;;;5038873;28;20590;-72
2023/08/29 11:02:20;;;;;;;4.13;3.80;;;19.60;99.90;;;;;;5025673;28;20493;-74
2023/08/29 11:04:46;;;;;;;5.73;4.00;;;19.70;99.90;;;;;;5030865;28;20528;-72
2023/08/29 11:07:27;;;;;;;4.93;4.40;;;19.50;99.90;;;;;;5062083;28;20558;-73
2023/08/29 11:10:16;;;;;;;4.27;3.90;;;19.60;99.90;;;;;;5030188;28;20289;-73
2023/08/29 11:13:06;;;;;;;3.93;3.60;;;19.60;99.90;;;;;;5033329;28;20470;-74
2023/08/29 11:15:50;;;;;;;4.00;3.70;;;19.60;99.90;;;;;;5047882;28;20482;-75
2023/08/29 11:18:34;;;;;;;4.83;4.30;;;19.70;99.90;;;;;;5005677;28;21058;-75
2023/08/29 11:21:09;;;;;;;4.50;4.10;;;19.60;99.90;;;;;;5030025;28;20477;-76
2023/08/29 11:23:43;;;;;;;4.63;3.80;;;19.80;99.90;;;;;;5001629;28;21196;-76
2023/08/29 11:26:09;;;;;;;10.50;4.10;;;19.80;99.90;;;;;;5002432;28;20470;-73
2023/08/29 11:28:44;;;;;;;4.27;3.87;;;20.00;99.90;;;;;;5003624;28;20520;-72
2023/08/29 11:31:10;;;;;;;4.43;4.03;;;20.00;99.90;;;;;;5001307;28;20535;-76
2023/08/29 11:33:36;;;;;;;5.47;4.97;;;20.00;99.90;;;;;;5000381;28;20490;-74
2023/08/29 11:36:07;;;;;;;6.27;5.67;;;20.00;99.90;;;;;;5011894;28;20481;-73
2023/08/29 11:38:33;;;;;;;6.47;5.87;;;20.00;99.90;;;;;;5003254;28;20474;-74
2023/08/29 11:41:02;;;;;;;5.90;5.40;;;19.90;99.90;;;;;;5003705;28;20474;-74
2023/08/29 11:43:30;;;;;;;5.70;5.20;;;20.00;99.90;;;;;;4982559;28;20470;-73
2023/08/29 11:46:01;;;;;;;7.60;5.60;;;20.10;99.90;;;;;;5014877;28;20470;-74
2023/08/29 11:48:36;;;;;;;7.60;6.80;;;20.10;99.90;;;;;;5017287;28;20880;-74
2023/08/29 11:51:04;;;;;;;6.63;5.80;;;19.90;99.90;;;;;;5028210;28;20461;-73
2023/08/29 11:53:32;;;;;;;8.03;6.77;;;19.90;99.90;;;;;;5000664;28;20473;-74
2023/08/29 11:55:59;;;;;;;6.63;6.00;;;19.90;99.90;;;;;;5033236;28;20559;-74
2023/08/29 11:58:35;;;;;;;6.73;5.80;;;20.20;99.90;;;;;;5013318;28;20517;-74
2023/08/29 12:01:02;;;;;;;7.07;5.70;;;20.10;99.90;;;;;;4994897;28;21127;-75
2023/08/29 12:03:27;;;;;;;6.40;5.13;;;20.10;99.90;;;;;;5002088;28;20482;-75
2023/08/29 12:05:57;;;;;;;5.90;5.30;;;20.20;99.90;;;;;;5002784;28;20524;-73
2023/08/29 12:08:33;;;;;;;6.00;5.50;;;20.40;99.90;;;;;;5027010;28;20224;-75
2023/08/29 12:10:59;;;;;;;5.00;4.57;;;20.40;99.90;;;;;;5028151;28;20474;-74
2023/08/29 12:13:25;;;;;;;5.27;4.80;;;20.50;99.90;;;;;;5029413;28;20518;-74
2023/08/29 12:15:50;;;;;;;5.47;4.97;;;20.40;99.90;;;;;;5015951;28;20264;-74
2023/08/29 12:18:23;;;;;;;6.10;4.97;;;20.50;99.90;;;;;;5001360;28;20236;-74
2023/08/29 12:20:49;;;;;;;5.20;4.80;;;20.50;99.90;;;;;;5002105;28;20220;-75
2023/08/29 12:23:26;;;;;;;4.70;4.30;;;20.70;99.90;;;;;;4999338;28;20527;-75
2023/08/29 12:25:55;;;;;;;4.43;4.03;;;20.60;99.90;;;;;;5001205;28;20462;-74
2023/08/29 12:28:22;;;;;;;4.50;4.10;;;20.50;99.90;;;;;;5018371;28;20473;-75
2023/08/29 12:30:48;;;;;;;5.27;4.10;;;20.50;99.90;;;;;;5001059;28;20478;-74
2023/08/29 12:33:14;;;;;;;4.30;3.90;;;20.60;99.90;;;;;;5009689;28;20516;-75
2023/08/29 12:35:39;;;;;;;4.43;4.03;;;20.60;99.90;;;;;;4994595;28;20220;-75
2023/08/29 12:38:06;;;;;;;4.97;4.57;;;20.50;99.90;;;;;;5000493;28;20954;-74
2023/08/29 12:40:32;;;;;;;4.33;4.00;;;20.60;99.90;;;;;;4994197;28;20224;-74
2023/08/29 12:42:57;;;;;;;4.00;3.70;;;20.60;99.90;;;;;;5000825;28;20500;-75